sensor_id;sensor_type;location;lat;lon;timestamp;temperature;humidity
25170;DHT22;13129;48.012;10.352;2022-09-17T03:32:27;7.90;99.90
25170;DHT22;13129;48.012;10.352;2022-09-17T03:34:52;8.00;99.90
25170;DHT22;13129;48.012;10.352;2022-09-17T03:37:19;7.90;99.90
25170;DHT22;13129;48.012;10.352;2022-09-17T03:39:44;7.90;99.90
25170;DHT22;13129;48.012;10.352;2022-09-17T03:42:10;8.00;99.90
25170;DHT22;13129;48.012;10.352;2022-09-17T03:44:35;8.00;99.90
25170;DHT22;13129;48.012;10.352;2022-09-17T03:47:01;8.00;99.90
25170;DHT22;13129;48.012;10.352;2022-09-17T03:52:41;8.00;99.90
25170;DHT22;13129;48.012;10.352;2022-09-17T03:55:16;8.00;99.90
25170;DHT22;13129;48.012;10.352;2022-09-17T03:57:50;8.00;99.90
25170;DHT22;13129;48.012;10.352;2022-09-17T04:00:49;8.10;99.90
25170;DHT22;13129;48.012;10.352;2022-09-17T04:03:17;8.00;99.90
25170;DHT22;13129;48.012;10.352;2022-09-17T04:05:43;8.00;99.90
25170;DHT22;13129;48.012;10.352;2022-09-17T04:11:28;8.00;99.90
25170;DHT22;13129;48.012;10.352;2022-09-17T04:14:01;8.00;99.90
25170;DHT22;13129;48.012;10.352;2022-09-17T04:16:26;8.00;99.90
25170;DHT22;13129;48.012;10.352;2022-09-17T04:18:52;8.00;99.90
25170;DHT22;13129;48.012;10.352;2022-09-17T04:21:17;7.90;99.90
25170;DHT22;13129;48.012;10.352;2022-09-17T04:23:43;7.90;99.90
25170;DHT22;13129;48.012;10.352;2022-09-17T04:26:08;7.90;99.90
25170;DHT22;13129;48.012;10.352;2022-09-17T04:28:34;7.90;99.90
25170;DHT22;13129;48.012;10.352;2022-09-17T04:31:00;7.90;99.90
25170;DHT22;13129;48.012;10.352;2022-09-17T04:33:26;7.90;99.90
25170;DHT22;13129;48.012;10.352;2022-09-17T04:35:51;7.90;99.90
25170;DHT22;13129;48.012;10.352;2022-09-17T04:38:18;7.80;99.90
25170;DHT22;13129;48.012;10.352;2022-09-17T04:40:45;7.80;99.90
25170;DHT22;13129;48.012;10.352;2022-09-17T04:43:13;7.80;99.90
25170;DHT22;13129;48.012;10.352;2022-09-17T04:45:38;7.70;99.90
25170;DHT22;13129;48.012;10.352;2022-09-17T04:48:04;7.70;99.90
25170;DHT22;13129;48.012;10.352;2022-09-17T04:50:30;7.70;99.90
25170;DHT22;13129;48.012;10.352;2022-09-17T04:52:55;7.70;99.90
25170;DHT22;13129;48.012;10.352;2022-09-17T04:55:21;7.60;99.90
25170;DHT22;13129;48.012;10.352;2022-09-17T04:57:50;7.50;99.90
25170;DHT22;13129;48.012;10.352;2022-09-17T05:00:16;7.40;99.90
25170;DHT22;13129;48.012;10.352;2022-09-17T05:02:43;7.30;99.90
25170;DHT22;13129;48.012;10.352;2022-09-17T05:05:09;7.30;99.90
25170;DHT22;13129;48.012;10.352;2022-09-17T05:07:37;7.20;99.90
25170;DHT22;13129;48.012;10.352;2022-09-17T05:10:02;7.20;99.90
25170;DHT22;13129;48.012;10.352;2022-09-17T05:12:28;7.10;99.90
25170;DHT22;13129;48.012;10.352;2022-09-17T05:14:53;7.20;99.90
25170;DHT22;13129;48.012;10.352;2022-09-17T05:17:19;7.20;99.90
25170;DHT22;13129;48.012;10.352;2022-09-17T05:19:44;7.30;99.90
25170;DHT22;13129;48.012;10.352;2022-09-17T05:22:10;7.30;99.90
25170;DHT22;13129;48.012;10.352;2022-09-17T05:24:35;7.40;99.90
25170;DHT22;13129;48.012;10.352;2022-09-17T05:27:03;7.40;99.90
25170;DHT22;13129;48.012;10.352;2022-09-17T05:29:29;7.40;99.90
25170;DHT22;13129;48.012;10.352;2022-09-17T05:31:54;7.40;99.90
25170;DHT22;13129;48.012;10.352;2022-09-17T05:34:20;7.40;99.90
25170;DHT22;13129;48.012;10.352;2022-09-17T05:36:46;7.50;99.90
25170;DHT22;13129;48.012;10.352;2022-09-17T05:39:11;7.60;99.90
25170;DHT22;13129;48.012;10.352;2022-09-17T05:41:37;7.70;99.90
25170;DHT22;13129;48.012;10.352;2022-09-17T05:44:02;7.70;99.90
25170;DHT22;13129;48.012;10.352;2022-09-17T05:46:28;7.80;99.90
25170;DHT22;13129;48.012;10.352;2022-09-17T05:48:56;7.80;99.90
25170;DHT22;13129;48.012;10.352;2022-09-17T05:51:22;7.80;99.90
25170;DHT22;13129;48.012;10.352;2022-09-17T05:53:48;7.90;99.90
25170;DHT22;13129;48.012;10.352;2022-09-17T05:56:14;7.90;99.90
25170;DHT22;13129;48.012;10.352;2022-09-17T05:58:40;7.90;99.90
25170;DHT22;13129;48.012;10.352;2022-09-17T06:01:05;8.00;99.90
25170;DHT22;13129;48.012;10.352;2022-09-17T06:03:31;8.10;99.90
25170;DHT22;13129;48.012;10.352;2022-09-17T06:05:57;8.20;99.90
25170;DHT22;13129;48.012;10.352;2022-09-17T06:08:24;8.30;99.90
25170;DHT22;13129;48.012;10.352;2022-09-17T06:10:49;8.40;99.90
25170;DHT22;13129;48.012;10.352;2022-09-17T06:13:18;8.50;99.90
25170;DHT22;13129;48.012;10.352;2022-09-17T06:15:53;8.50;99.90
25170;DHT22;13129;48.012;10.352;2022-09-17T06:18:19;8.40;99.90
25170;DHT22;13129;48.012;10.352;2022-09-17T06:20:51;8.30;99.90
25170;DHT22;13129;48.012;10.352;2022-09-17T06:23:18;8.30;99.90
25170;DHT22;13129;48.012;10.352;2022-09-17T06:25:48;8.30;99.90
25170;DHT22;13129;48.012;10.352;2022-09-17T06:28:14;8.20;99.90
25170;DHT22;13129;48.012;10.352;2022-09-17T06:30:39;8.20;99.90
25170;DHT22;13129;48.012;10.352;2022-09-17T06:33:05;8.20;99.90
25170;DHT22;13129;48.012;10.352;2022-09-17T06:35:31;8.20;99.90
25170;DHT22;13129;48.012;10.352;2022-09-17T06:37:56;8.20;99.90
25170;DHT22;13129;48.012;10.352;2022-09-17T06:40:22;8.30;99.90
25170;DHT22;13129;48.012;10.352;2022-09-17T06:42:47;8.30;99.90
25170;DHT22;13129;48.012;10.352;2022-09-17T06:45:13;8.50;99.90
25170;DHT22;13129;48.012;10.352;2022-09-17T06:47:39;8.70;99.90
25170;DHT22;13129;48.012;10.352;2022-09-17T06:50:04;9.00;99.90
25170;DHT22;13129;48.012;10.352;2022-09-17T06:52:30;9.20;99.90
25170;DHT22;13129;48.012;10.352;2022-09-17T06:54:55;9.30;99.90
25170;DHT22;13129;48.012;10.352;2022-09-17T06:57:21;9.30;99.90
25170;DHT22;13129;48.012;10.352;2022-09-17T06:59:47;9.40;99.90
25170;DHT22;13129;48.012;10.352;2022-09-17T07:02:14;9.60;99.90
25170;DHT22;13129;48.012;10.352;2022-09-17T07:04:39;9.90;99.90
25170;DHT22;13129;48.012;10.352;2022-09-17T07:07:05;10.30;99.90
25170;DHT22;13129;48.012;10.352;2022-09-17T07:09:30;10.90;99.90
25170;DHT22;13129;48.012;10.352;2022-09-17T07:11:56;11.50;99.90
25170;DHT22;13129;48.012;10.352;2022-09-17T07:14:22;12.20;99.90
25170;DHT22;13129;48.012;10.352;2022-09-17T07:16:49;12.20;99.90
25170;DHT22;13129;48.012;10.352;2022-09-17T07:19:14;12.30;99.90
25170;DHT22;13129;48.012;10.352;2022-09-17T07:21:40;13.30;99.90
25170;DHT22;13129;48.012;10.352;2022-09-17T07:24:05;15.20;99.90
25170;DHT22;13129;48.012;10.352;2022-09-17T07:26:31;16.30;99.90
25170;DHT22;13129;48.012;10.352;2022-09-17T07:28:56;17.10;99.90
25170;DHT22;13129;48.012;10.352;2022-09-17T07:31:22;17.30;99.90
25170;DHT22;13129;48.012;10.352;2022-09-17T07:33:47;16.50;99.90
25170;DHT22;13129;48.012;10.352;2022-09-17T07:36:13;15.50;99.90
25170;DHT22;13129;48.012;10.352;2022-09-17T07:38:42;15.30;99.90
25170;DHT22;13129;48.012;10.352;2022-09-17T07:41:11;15.60;99.90
25170;DHT22;13129;48.012;10.352;2022-09-17T07:43:37;16.80;99.90
25170;DHT22;13129;48.012;10.352;2022-09-17T07:46:04;17.50;99.90
25170;DHT22;13129;48.012;10.352;2022-09-17T07:48:30;16.60;99.90
25170;DHT22;13129;48.012;10.352;2022-09-17T07:50:56;15.20;99.90
25170;DHT22;13129;48.012;10.352;2022-09-17T07:53:22;13.80;99.90
25170;DHT22;13129;48.012;10.352;2022-09-17T07:55:51;12.80;99.90
25170;DHT22;13129;48.012;10.352;2022-09-17T07:58:17;12.20;99.90
25170;DHT22;13129;48.012;10.352;2022-09-17T08:00:43;11.70;99.90
25170;DHT22;13129;48.012;10.352;2022-09-17T08:03:08;11.30;99.90
25170;DHT22;13129;48.012;10.352;2022-09-17T08:05:34;10.80;99.90
25170;DHT22;13129;48.012;10.352;2022-09-17T08:07:59;10.50;99.90
25170;DHT22;13129;48.012;10.352;2022-09-17T08:10:25;10.20;99.90
25170;DHT22;13129;48.012;10.352;2022-09-17T08:12:55;10.00;99.90
25170;DHT22;13129;48.012;10.352;2022-09-17T08:15:21;10.00;99.90
25170;DHT22;13129;48.012;10.352;2022-09-17T08:17:46;9.90;99.90
25170;DHT22;13129;48.012;10.352;2022-09-17T08:20:12;9.90;99.90
25170;DHT22;13129;48.012;10.352;2022-09-17T08:22:38;10.10;99.90
25170;DHT22;13129;48.012;10.352;2022-09-17T08:25:04;11.40;99.90
25170;DHT22;13129;48.012;10.352;2022-09-17T08:27:30;13.80;99.90
25170;DHT22;13129;48.012;10.352;2022-09-17T08:30:05;16.90;99.90
25170;DHT22;13129;48.012;10.352;2022-09-17T08:32:31;18.50;99.90
25170;DHT22;13129;48.012;10.352;2022-09-17T08:34:57;19.80;97.90
25170;DHT22;13129;48.012;10.352;2022-09-17T08:37:22;21.00;94.00
25170;DHT22;13129;48.012;10.352;2022-09-17T08:39:48;20.70;89.60
25170;DHT22;13129;48.012;10.352;2022-09-17T08:44:51;18.80;89.80
25170;DHT22;13129;48.012;10.352;2022-09-17T08:47:25;17.50;91.50
25170;DHT22;13129;48.012;10.352;2022-09-17T08:49:59;16.30;93.80
25170;DHT22;13129;48.012;10.352;2022-09-17T08:57:45;13.20;99.90
25170;DHT22;13129;48.012;10.352;2022-09-17T09:00:14;12.40;99.90
25170;DHT22;13129;48.012;10.352;2022-09-17T09:02:42;11.80;99.90
25170;DHT22;13129;48.012;10.352;2022-09-17T09:05:18;11.30;99.90
25170;DHT22;13129;48.012;10.352;2022-09-17T09:07:49;11.00;99.90
25170;DHT22;13129;48.012;10.352;2022-09-17T09:10:22;10.90;99.90
25170;DHT22;13129;48.012;10.352;2022-09-17T09:12:52;11.10;99.90
25170;DHT22;13129;48.012;10.352;2022-09-17T09:17:45;11.70;99.90
25170;DHT22;13129;48.012;10.352;2022-09-17T09:20:24;12.00;99.90
25170;DHT22;13129;48.012;10.352;2022-09-17T09:22:54;12.20;99.90
25170;DHT22;13129;48.012;10.352;2022-09-17T09:25:21;13.00;99.90
25170;DHT22;13129;48.012;10.352;2022-09-17T09:30:22;13.70;99.90
25170;DHT22;13129;48.012;10.352;2022-09-17T09:35:34;13.00;99.90
25170;DHT22;13129;48.012;10.352;2022-09-17T09:42:59;12.60;99.90
25170;DHT22;13129;48.012;10.352;2022-09-17T09:48:14;12.40;99.90
25170;DHT22;13129;48.012;10.352;2022-09-17T09:51:01;12.10;99.90
25170;DHT22;13129;48.012;10.352;2022-09-17T09:58:45;11.60;99.90
25170;DHT22;13129;48.012;10.352;2022-09-17T10:01:14;11.50;99.90
25170;DHT22;13129;48.012;10.352;2022-09-17T10:03:40;11.40;99.90
25170;DHT22;13129;48.012;10.352;2022-09-17T10:06:07;11.30;99.90
25170;DHT22;13129;48.012;10.352;2022-09-17T10:08:34;11.10;99.90
25170;DHT22;13129;48.012;10.352;2022-09-17T10:11:01;11.00;99.90
25170;DHT22;13129;48.012;10.352;2022-09-17T10:13:27;11.00;99.90
25170;DHT22;13129;48.012;10.352;2022-09-17T10:15:54;10.90;99.90
25170;DHT22;13129;48.012;10.352;2022-09-17T10:18:21;11.00;99.90
25170;DHT22;13129;48.012;10.352;2022-09-17T10:20:50;11.00;99.90
25170;DHT22;13129;48.012;10.352;2022-09-17T10:23:16;11.00;99.90
25170;DHT22;13129;48.012;10.352;2022-09-17T10:25:42;10.90;99.90
25170;DHT22;13129;48.012;10.352;2022-09-17T10:28:20;10.90;99.90
25170;DHT22;13129;48.012;10.352;2022-09-17T10:30:58;10.80;99.90
25170;DHT22;13129;48.012;10.352;2022-09-17T10:33:28;10.50;99.90
25170;DHT22;13129;48.012;10.352;2022-09-17T10:35:59;10.20;99.90
25170;DHT22;13129;48.012;10.352;2022-09-17T10:38:26;10.00;99.90
25170;DHT22;13129;48.012;10.352;2022-09-17T10:40:52;10.00;99.90
25170;DHT22;13129;48.012;10.352;2022-09-17T10:43:20;10.30;99.90
25170;DHT22;13129;48.012;10.352;2022-09-17T10:45:57;10.70;99.90
25170;DHT22;13129;48.012;10.352;2022-09-17T10:48:24;11.00;99.90
25170;DHT22;13129;48.012;10.352;2022-09-17T10:50:53;11.60;99.90
25170;DHT22;13129;48.012;10.352;2022-09-17T10:53:21;12.10;99.90
25170;DHT22;13129;48.012;10.352;2022-09-17T10:55:50;12.70;99.90
25170;DHT22;13129;48.012;10.352;2022-09-17T11:06:05;13.40;99.90
25170;DHT22;13129;48.012;10.352;2022-09-17T11:08:33;13.80;99.90
25170;DHT22;13129;48.012;10.352;2022-09-17T11:11:10;14.00;99.90
25170;DHT22;13129;48.012;10.352;2022-09-17T11:21:35;13.80;99.90
25170;DHT22;13129;48.012;10.352;2022-09-17T11:29:39;12.80;99.90
25170;DHT22;13129;48.012;10.352;2022-09-17T11:37:30;12.30;99.90
25170;DHT22;13129;48.012;10.352;2022-09-17T11:39:58;12.90;99.90
25170;DHT22;13129;48.012;10.352;2022-09-17T11:42:27;13.40;99.90
25170;DHT22;13129;48.012;10.352;2022-09-17T11:45:00;13.60;99.90
25170;DHT22;13129;48.012;10.352;2022-09-17T11:47:32;13.60;99.90
25170;DHT22;13129;48.012;10.352;2022-09-17T11:50:03;13.60;99.90
25170;DHT22;13129;48.012;10.352;2022-09-17T11:52:31;13.60;99.90
25170;DHT22;13129;48.012;10.352;2022-09-17T11:55:00;13.50;99.90
25170;DHT22;13129;48.012;10.352;2022-09-17T11:57:32;13.50;99.90
25170;DHT22;13129;48.012;10.352;2022-09-17T12:00:04;13.50;99.90
25170;DHT22;13129;48.012;10.352;2022-09-17T12:05:17;13.60;99.90
25170;DHT22;13129;48.012;10.352;2022-09-17T12:07:49;13.70;99.90
25170;DHT22;13129;48.012;10.352;2022-09-17T12:12:42;13.40;99.90
25170;DHT22;13129;48.012;10.352;2022-09-17T12:15:14;13.40;99.90
25170;DHT22;13129;48.012;10.352;2022-09-17T12:17:43;13.60;99.90
25170;DHT22;13129;48.012;10.352;2022-09-17T12:20:26;14.00;99.90
25170;DHT22;13129;48.012;10.352;2022-09-17T12:22:53;14.00;99.90
25170;DHT22;13129;48.012;10.352;2022-09-17T12:25:19;13.60;99.90
25170;DHT22;13129;48.012;10.352;2022-09-17T12:30:19;12.20;99.90
25170;DHT22;13129;48.012;10.352;2022-09-17T12:33:07;11.60;99.90
25170;DHT22;13129;48.012;10.352;2022-09-17T12:35:40;11.70;99.90
25170;DHT22;13129;48.012;10.352;2022-09-17T12:40:56;12.00;99.90
25170;DHT22;13129;48.012;10.352;2022-09-17T12:43:38;12.00;99.90
25170;DHT22;13129;48.012;10.352;2022-09-17T12:57:19;11.60;99.90
25170;DHT22;13129;48.012;10.352;2022-09-17T12:59:49;11.40;99.90
25170;DHT22;13129;48.012;10.352;2022-09-17T13:02:21;11.50;99.90
25170;DHT22;13129;48.012;10.352;2022-09-17T13:10:24;12.40;99.90
25170;DHT22;13129;48.012;10.352;2022-09-17T13:22:29;12.10;99.90
25170;DHT22;13129;48.012;10.352;2022-09-17T13:25:04;12.00;99.90
25170;DHT22;13129;48.012;10.352;2022-09-17T13:27:30;12.00;99.90
25170;DHT22;13129;48.012;10.352;2022-09-17T13:29:56;12.00;99.90
25170;DHT22;13129;48.012;10.352;2022-09-17T13:40:26;12.10;99.90
25170;DHT22;13129;48.012;10.352;2022-09-17T13:42:53;12.00;99.90
25170;DHT22;13129;48.012;10.352;2022-09-17T13:45:20;12.10;99.90
25170;DHT22;13129;48.012;10.352;2022-09-17T13:47:48;12.20;99.90
25170;DHT22;13129;48.012;10.352;2022-09-17T13:50:26;12.30;99.90
25170;DHT22;13129;48.012;10.352;2022-09-17T13:52:52;12.30;99.90
25170;DHT22;13129;48.012;10.352;2022-09-17T13:55:36;12.50;99.90
25170;DHT22;13129;48.012;10.352;2022-09-17T13:58:03;12.70;99.90
25170;DHT22;13129;48.012;10.352;2022-09-17T14:21:37;12.50;99.90
25170;DHT22;13129;48.012;10.352;2022-09-17T14:24:12;12.30;99.90
25170;DHT22;13129;48.012;10.352;2022-09-17T14:26:46;12.10;99.90
25170;DHT22;13129;48.012;10.352;2022-09-17T14:29:19;11.90;99.90
25170;DHT22;13129;48.012;10.352;2022-09-17T14:31:47;11.90;99.90
25170;DHT22;13129;48.012;10.352;2022-09-17T14:34:20;11.90;99.90
25170;DHT22;13129;48.012;10.352;2022-09-17T14:36:46;11.90;99.90
25170;DHT22;13129;48.012;10.352;2022-09-17T14:39:19;12.00;99.90
25170;DHT22;13129;48.012;10.352;2022-09-17T14:41:45;12.10;99.90
25170;DHT22;13129;48.012;10.352;2022-09-17T14:44:12;12.20;99.90
25170;DHT22;13129;48.012;10.352;2022-09-17T14:46:41;12.30;99.90
25170;DHT22;13129;48.012;10.352;2022-09-17T14:51:44;12.30;99.90
25170;DHT22;13129;48.012;10.352;2022-09-17T14:56:42;12.10;99.90
25170;DHT22;13129;48.012;10.352;2022-09-17T14:59:13;12.00;99.90
25170;DHT22;13129;48.012;10.352;2022-09-17T15:01:41;11.90;99.90
25170;DHT22;13129;48.012;10.352;2022-09-17T15:06:41;11.70;99.90
25170;DHT22;13129;48.012;10.352;2022-09-17T15:09:23;11.50;99.90
25170;DHT22;13129;48.012;10.352;2022-09-17T15:11:49;11.40;99.90
25170;DHT22;13129;48.012;10.352;2022-09-17T15:14:17;11.20;99.90
25170;DHT22;13129;48.012;10.352;2022-09-17T15:16:51;11.00;99.90
25170;DHT22;13129;48.012;10.352;2022-09-17T15:19:22;10.90;99.90
25170;DHT22;13129;48.012;10.352;2022-09-17T15:21:51;10.80;99.90
25170;DHT22;13129;48.012;10.352;2022-09-17T15:25:00;10.70;99.90
25170;DHT22;13129;48.012;10.352;2022-09-17T15:27:13;10.60;99.90
25170;DHT22;13129;48.012;10.352;2022-09-17T15:29:43;9.70;99.90
25170;DHT22;13129;48.012;10.352;2022-09-17T15:32:10;8.70;99.90
25170;DHT22;13129;48.012;10.352;2022-09-17T15:34:36;8.10;99.90
25170;DHT22;13129;48.012;10.352;2022-09-17T15:37:03;7.80;99.90
25170;DHT22;13129;48.012;10.352;2022-09-17T15:39:39;7.60;99.90
25170;DHT22;13129;48.012;10.352;2022-09-17T15:42:13;7.60;99.90
25170;DHT22;13129;48.012;10.352;2022-09-17T15:44:41;7.50;99.90
25170;DHT22;13129;48.012;10.352;2022-09-17T15:50:06;7.60;99.90
25170;DHT22;13129;48.012;10.352;2022-09-17T15:52:35;7.70;99.90
25170;DHT22;13129;48.012;10.352;2022-09-17T15:55:01;7.80;99.90
25170;DHT22;13129;48.012;10.352;2022-09-17T15:57:27;7.80;99.90
25170;DHT22;13129;48.012;10.352;2022-09-17T15:59:54;7.90;99.90
25170;DHT22;13129;48.012;10.352;2022-09-17T16:02:24;8.10;99.90
25170;DHT22;13129;48.012;10.352;2022-09-17T16:04:53;8.10;99.90
25170;DHT22;13129;48.012;10.352;2022-09-17T16:07:36;8.20;99.90
25170;DHT22;13129;48.012;10.352;2022-09-17T16:10:02;8.20;99.90
25170;DHT22;13129;48.012;10.352;2022-09-17T16:12:28;8.30;99.90
25170;DHT22;13129;48.012;10.352;2022-09-17T16:14:55;8.40;99.90
25170;DHT22;13129;48.012;10.352;2022-09-17T16:19:53;8.60;99.90
25170;DHT22;13129;48.012;10.352;2022-09-17T16:22:20;8.60;99.90
25170;DHT22;13129;48.012;10.352;2022-09-17T16:24:45;8.50;99.90
25170;DHT22;13129;48.012;10.352;2022-09-17T16:27:14;8.40;99.90
25170;DHT22;13129;48.012;10.352;2022-09-17T16:29:40;8.40;99.90
25170;DHT22;13129;48.012;10.352;2022-09-17T16:32:09;8.40;99.90
25170;DHT22;13129;48.012;10.352;2022-09-17T16:34:35;8.30;99.90
25170;DHT22;13129;48.012;10.352;2022-09-17T16:37:00;8.30;99.90
25170;DHT22;13129;48.012;10.352;2022-09-17T16:39:27;8.30;99.90
25170;DHT22;13129;48.012;10.352;2022-09-17T16:41:53;8.30;99.90
25170;DHT22;13129;48.012;10.352;2022-09-17T16:44:19;8.30;99.90
25170;DHT22;13129;48.012;10.352;2022-09-17T16:46:45;8.30;99.90
25170;DHT22;13129;48.012;10.352;2022-09-17T16:49:13;8.30;99.90
25170;DHT22;13129;48.012;10.352;2022-09-17T16:51:38;8.20;99.90
25170;DHT22;13129;48.012;10.352;2022-09-17T16:54:04;8.20;99.90
25170;DHT22;13129;48.012;10.352;2022-09-17T16:56:29;8.10;99.90
25170;DHT22;13129;48.012;10.352;2022-09-17T16:58:55;8.10;99.90
25170;DHT22;13129;48.012;10.352;2022-09-17T17:01:21;8.00;99.90
25170;DHT22;13129;48.012;10.352;2022-09-17T17:03:49;8.00;99.90
25170;DHT22;13129;48.012;10.352;2022-09-17T17:06:17;7.90;99.90
25170;DHT22;13129;48.012;10.352;2022-09-17T17:08:43;7.90;99.90
25170;DHT22;13129;48.012;10.352;2022-09-17T17:11:09;7.90;99.90
25170;DHT22;13129;48.012;10.352;2022-09-17T17:13:34;7.80;99.90
25170;DHT22;13129;48.012;10.352;2022-09-17T17:16:04;7.80;99.90
25170;DHT22;13129;48.012;10.352;2022-09-17T17:18:29;7.70;99.90
25170;DHT22;13129;48.012;10.352;2022-09-17T17:20:55;7.70;99.90
25170;DHT22;13129;48.012;10.352;2022-09-17T17:23:28;7.60;99.90
25170;DHT22;13129;48.012;10.352;2022-09-17T17:25:53;7.60;99.90
25170;DHT22;13129;48.012;10.352;2022-09-17T17:28:19;7.50;99.90
25170;DHT22;13129;48.012;10.352;2022-09-17T17:30:46;7.50;99.90
25170;DHT22;13129;48.012;10.352;2022-09-17T17:33:11;7.50;99.90
25170;DHT22;13129;48.012;10.352;2022-09-17T17:35:39;7.50;99.90
25170;DHT22;13129;48.012;10.352;2022-09-17T17:38:07;7.50;99.90
25170;DHT22;13129;48.012;10.352;2022-09-17T17:40:32;7.50;99.90
25170;DHT22;13129;48.012;10.352;2022-09-17T17:42:58;7.50;99.90
25170;DHT22;13129;48.012;10.352;2022-09-17T17:45:23;7.60;99.90
25170;DHT22;13129;48.012;10.352;2022-09-17T17:47:50;7.60;99.90
25170;DHT22;13129;48.012;10.352;2022-09-17T17:50:16;7.60;99.90
25170;DHT22;13129;48.012;10.352;2022-09-17T17:52:42;7.60;99.90
25170;DHT22;13129;48.012;10.352;2022-09-17T17:55:12;7.50;99.90
25170;DHT22;13129;48.012;10.352;2022-09-17T18:10:04;7.70;99.90
25170;DHT22;13129;48.012;10.352;2022-09-17T18:15:54;7.60;99.90
25170;DHT22;13129;48.012;10.352;2022-09-17T18:33:56;8.00;99.90
25170;DHT22;13129;48.012;10.352;2022-09-17T18:55:16;7.90;99.90
25170;DHT22;13129;48.012;10.352;2022-09-17T19:01:21;8.00;99.90
25170;DHT22;13129;48.012;10.352;2022-09-17T19:04:14;8.00;99.90
25170;DHT22;13129;48.012;10.352;2022-09-17T19:09:57;8.10;99.90
25170;DHT22;13129;48.012;10.352;2022-09-17T19:50:19;8.20;99.90
25170;DHT22;13129;48.012;10.352;2022-09-17T21:13:45;8.10;99.90
25170;DHT22;13129;48.012;10.352;2022-09-17T21:51:13;8.00;99.90
25170;DHT22;13129;48.012;10.352;2022-09-17T21:53:51;7.90;99.90
25170;DHT22;13129;48.012;10.352;2022-09-17T21:56:25;7.90;99.90
25170;DHT22;13129;48.012;10.352;2022-09-17T21:58:52;7.80;99.90
25170;DHT22;13129;48.012;10.352;2022-09-17T22:01:19;7.80;99.90
25170;DHT22;13129;48.012;10.352;2022-09-17T22:03:45;7.70;99.90
25170;DHT22;13129;48.012;10.352;2022-09-17T22:06:12;7.60;99.90
25170;DHT22;13129;48.012;10.352;2022-09-17T22:08:38;7.60;99.90
25170;DHT22;13129;48.012;10.352;2022-09-17T22:11:07;7.60;99.90
25170;DHT22;13129;48.012;10.352;2022-09-17T22:13:34;7.60;99.90
25170;DHT22;13129;48.012;10.352;2022-09-17T22:16:00;7.60;99.90
25170;DHT22;13129;48.012;10.352;2022-09-17T22:18:28;7.60;99.90
25170;DHT22;13129;48.012;10.352;2022-09-17T22:20:54;7.60;99.90
25170;DHT22;13129;48.012;10.352;2022-09-17T22:23:20;7.60;99.90
25170;DHT22;13129;48.012;10.352;2022-09-17T22:25:45;7.60;99.90
25170;DHT22;13129;48.012;10.352;2022-09-17T22:28:11;7.60;99.90
25170;DHT22;13129;48.012;10.352;2022-09-17T22:30:38;7.60;99.90
25170;DHT22;13129;48.012;10.352;2022-09-17T22:33:04;7.60;99.90
25170;DHT22;13129;48.012;10.352;2022-09-17T22:35:30;7.60;99.90
25170;DHT22;13129;48.012;10.352;2022-09-17T22:37:56;7.50;99.90
25170;DHT22;13129;48.012;10.352;2022-09-17T22:40:21;7.50;99.90
25170;DHT22;13129;48.012;10.352;2022-09-17T22:42:47;7.50;99.90
25170;DHT22;13129;48.012;10.352;2022-09-17T22:45:12;7.50;99.90
25170;DHT22;13129;48.012;10.352;2022-09-17T22:47:41;7.40;99.90
25170;DHT22;13129;48.012;10.352;2022-09-17T22:50:06;7.40;99.90
25170;DHT22;13129;48.012;10.352;2022-09-17T22:52:32;7.30;99.90
25170;DHT22;13129;48.012;10.352;2022-09-17T22:54:58;7.30;99.90
25170;DHT22;13129;48.012;10.352;2022-09-17T22:57:23;7.30;99.90
25170;DHT22;13129;48.012;10.352;2022-09-17T22:59:49;7.30;99.90
